Time;durP1;ratioP1;P1;durP2;ratioP2;P2;SDS_P1;SDS_P2;PMS_P1;PMS_P2;Temp;Humidity;BMP_temperature;BMP_pressure;BME280_temperature;BME280_humidity;BME280_pressure;Samples;Min_cycle;Max_cycle;Signal;HPM_P1;HPM_P2
2021/08/29 00:02:18;;;;;;;5.60;4.60;;;;;;;15.30;90.59;96459.56;5053154;28;20203;-60
2021/08/29 00:04:43;;;;;;;4.53;3.80;;;;;;;15.35;90.46;96462.25;5052583;28;20202;-63
2021/08/29 00:07:08;;;;;;;4.67;4.27;;;;;;;15.38;90.19;96461.72;5053035;28;20255;-63
2021/08/29 00:09:34;;;;;;;4.33;4.03;;;;;;;15.31;90.22;96452.38;5053101;28;20180;-62
2021/08/29 00:12:00;;;;;;;4.00;3.70;;;;;;;15.15;90.68;96448.03;5052891;28;20172;-60
2021/08/29 00:14:26;;;;;;;4.60;4.20;;;;;;;15.05;91.66;96447.94;5067868;28;20669;-60
2021/08/29 00:16:51;;;;;;;3.87;3.57;;;;;;;14.97;92.04;96438.59;5073679;28;20178;-63
2021/08/29 00:19:16;;;;;;;4.30;4.00;;;;;;;14.91;92.29;96454.69;5076896;28;20202;-60
2021/08/29 00:21:42;;;;;;;4.30;3.90;;;;;;;14.74;93.20;96451.34;5076629;28;20191;-63
2021/08/29 00:24:07;;;;;;;4.00;3.70;;;;;;;14.68;93.71;96452.31;5076043;28;20273;-62
2021/08/29 00:26:33;;;;;;;4.87;4.30;;;;;;;14.78;93.57;96449.81;5077300;28;20170;-59
2021/08/29 00:28:58;;;;;;;4.63;4.23;;;;;;;14.66;93.96;96449.94;5062420;28;20658;-60
2021/08/29 00:31:23;;;;;;;5.00;4.20;;;;;;;14.65;93.96;96444.91;5056597;28;20171;-59
2021/08/29 00:33:49;;;;;;;5.00;4.30;;;;;;;14.75;94.56;96442.34;5056158;28;20206;-60
2021/08/29 00:36:14;;;;;;;4.80;4.40;;;;;;;14.92;93.39;96448.34;5056379;28;20561;-63
2021/08/29 00:38:39;;;;;;;4.40;4.00;;;;;;;14.99;92.70;96435.72;5056373;28;20176;-62
2021/08/29 00:41:09;;;;;;;4.40;4.00;;;;;;;15.03;92.79;96442.91;5056367;28;20515;-63
2021/08/29 00:43:34;;;;;;;5.37;4.40;;;;;;;14.96;93.07;96444.97;5058729;28;20673;-63
2021/08/29 00:46:00;;;;;;;4.30;3.80;;;;;;;14.84;93.78;96444.31;5063488;28;20436;-60
2021/08/29 00:48:25;;;;;;;4.87;4.27;;;;;;;14.82;93.90;96445.63;5076385;28;20678;-63
2021/08/29 00:50:51;;;;;;;5.30;4.40;;;;;;;14.95;93.97;96438.06;5076112;28;20202;-60
2021/08/29 00:53:17;;;;;;;4.80;4.40;;;;;;;15.07;93.21;96440.56;5075886;28;20173;-63
2021/08/29 00:55:44;;;;;;;4.80;4.40;;;;;;;15.13;92.69;96440.34;5074781;28;20282;-60
2021/08/29 00:58:09;;;;;;;4.37;3.97;;;;;;;15.31;92.14;96432.00;5076217;28;20887;-60
2021/08/29 01:00:39;;;;;;;5.33;4.83;;;;;;;15.47;92.00;96430.31;5075229;28;20604;-63
2021/08/29 01:03:04;;;;;;;5.47;4.80;;;;;;;15.49;91.81;96432.72;5075697;28;20665;-60
2021/08/29 01:05:37;;;;;;;5.07;4.63;;;;;;;15.54;91.99;96427.44;5075814;28;20464;-60
2021/08/29 01:08:10;;;;;;;5.10;4.60;;;;;;;15.59;91.98;96430.13;5075856;28;20705;-63
2021/08/29 01:10:41;;;;;;;4.80;4.40;;;;;;;15.68;91.70;96431.25;5075811;28;20411;-63
2021/08/29 01:13:22;;;;;;;5.23;4.73;;;;;;;15.39;92.88;96418.31;5075400;28;20412;-60
2021/08/29 01:15:48;;;;;;;4.87;4.37;;;;;;;15.51;92.62;96422.66;5065457;28;20444;-63
2021/08/29 01:18:15;;;;;;;4.90;4.50;;;;;;;15.50;92.72;96416.56;5055544;28;20445;-60
2021/08/29 01:21:01;;;;;;;7.23;5.07;;;;;;;15.41;93.65;96424.19;5055533;28;20463;-60
2021/08/29 01:23:28;;;;;;;5.23;4.73;;;;;;;15.53;93.28;96423.22;5055313;28;20461;-60
2021/08/29 01:26:31;;;;;;;4.40;4.00;;;;;;;15.37;93.79;96428.38;5055380;28;20875;-60
2021/08/29 01:28:59;;;;;;;4.73;4.10;;;;;;;15.36;94.17;96426.75;5055504;28;20483;-63
2021/08/29 01:31:28;;;;;;;4.70;4.30;;;;;;;15.21;94.90;96423.19;5072257;28;20428;-60
2021/08/29 01:33:56;;;;;;;4.97;4.50;;;;;;;15.06;95.33;96417.78;5075271;28;20491;-60
2021/08/29 01:36:22;;;;;;;4.93;4.50;;;;;;;15.11;95.39;96417.84;5075504;28;20939;-63
2021/08/29 01:38:48;;;;;;;4.33;3.93;;;;;;;15.16;95.87;96417.88;5075190;28;20409;-63
2021/08/29 01:41:16;;;;;;;5.20;4.70;;;;;;;15.14;96.29;96417.31;5075100;28;20887;-61
2021/08/29 01:43:43;;;;;;;5.10;4.60;;;;;;;14.99;96.57;96412.69;5074821;28;20178;-60
2021/08/29 01:46:08;;;;;;;5.50;5.00;;;;;;;14.81;98.13;96404.31;5057854;28;20982;-63
2021/08/29 01:48:37;;;;;;;5.57;4.93;;;;;;;14.88;98.19;96400.44;5056096;28;20425;-63
2021/08/29 01:51:02;;;;;;;7.03;4.97;;;;;;;15.06;97.10;96402.69;5068709;28;20265;-60
2021/08/29 01:53:28;;;;;;;5.33;4.83;;;;;;;14.97;96.90;96400.75;5074636;28;20933;-63
2021/08/29 01:55:54;;;;;;;5.50;5.00;;;;;;;15.15;96.84;96406.47;5074739;28;20285;-61
2021/08/29 01:58:20;;;;;;;5.20;4.70;;;;;;;15.32;95.71;96396.56;5075081;28;20448;-60
2021/08/29 02:00:51;;;;;;;4.83;4.33;;;;;;;15.23;95.66;96397.28;5074942;28;20175;-60
2021/08/29 02:03:16;;;;;;;5.53;5.03;;;;;;;14.96;96.61;96389.41;5073772;28;20467;-63
2021/08/29 02:05:43;;;;;;;5.30;4.90;;;;;;;14.81;97.51;96383.97;5074623;28;20429;-63
2021/08/29 02:08:08;;;;;;;4.83;4.43;;;;;;;14.73;97.10;96392.34;5074732;28;20178;-60
2021/08/29 02:10:35;;;;;;;5.70;5.03;;;;;;;14.56;98.97;96382.94;5074733;28;20409;-63
2021/08/29 02:13:07;;;;;;;5.23;4.83;;;;;;;14.33;99.56;96390.09;5074462;28;20167;-60
2021/08/29 02:15:41;;;;;;;5.33;4.93;;;;;;;14.36;100.00;96383.53;5074701;28;20421;-62
2021/08/29 02:18:09;;;;;;;5.30;4.90;;;;;;;14.01;100.00;96388.38;5058560;28;20440;-63
2021/08/29 02:20:36;;;;;;;5.03;4.60;;;;;;;14.12;100.00;96382.16;5054372;28;20472;-60
2021/08/29 02:23:01;;;;;;;4.47;4.13;;;;;;;14.13;100.00;96386.41;5053919;28;20817;-63
2021/08/29 02:25:27;;;;;;;4.70;4.20;;;;;;;14.05;100.00;96381.53;5054170;28;20449;-60
2021/08/29 02:27:53;;;;;;;6.13;4.90;;;;;;;14.20;100.00;96381.72;5054189;28;20211;-60
2021/08/29 02:30:19;;;;;;;4.30;3.90;;;;;;;14.42;99.79;96380.66;5054255;28;20171;-63
2021/08/29 02:32:45;;;;;;;5.10;4.70;;;;;;;14.30;100.00;96384.50;5068481;28;20525;-63
2021/08/29 02:35:11;;;;;;;4.97;4.50;;;;;;;14.49;99.12;96388.44;5074132;28;20429;-63
2021/08/29 02:37:38;;;;;;;4.80;4.40;;;;;;;14.53;98.80;96384.22;5073930;28;20401;-62
2021/08/29 02:40:07;;;;;;;4.97;4.53;;;;;;;14.79;98.48;96386.06;5073812;28;20244;-63
2021/08/29 02:42:32;;;;;;;4.90;4.50;;;;;;;14.88;98.10;96381.91;5073617;28;20457;-63
2021/08/29 02:45:04;;;;;;;5.20;4.70;;;;;;;14.89;98.02;96380.06;5073650;28;20788;-63
2021/08/29 02:47:30;;;;;;;5.20;4.40;;;;;;;15.04;97.65;96380.16;5058973;28;20179;-61
2021/08/29 02:49:56;;;;;;;5.93;5.33;;;;;;;14.93;98.03;96378.53;5058501;28;20421;-62
2021/08/29 02:52:22;;;;;;;5.73;5.20;;;;;;;14.99;97.33;96373.00;5074280;28;20716;-63
2021/08/29 02:54:49;;;;;;;6.23;5.30;;;;;;;15.07;97.09;96369.88;5073329;28;20190;-63
2021/08/29 02:57:16;;;;;;;4.73;4.20;;;;;;;15.22;96.54;96372.66;5073841;28;20517;-60
2021/08/29 02:59:42;;;;;;;5.47;4.73;;;;;;;15.27;96.65;96375.31;5073786;28;20412;-60
2021/08/29 03:02:09;;;;;;;5.43;4.90;;;;;;;15.26;95.06;96376.38;5064086;28;20450;-61
2021/08/29 03:04:35;;;;;;;4.70;3.90;;;;;;;15.09;96.51;96382.88;5069758;28;20441;-61
2021/08/29 03:07:01;;;;;;;4.60;4.20;;;;;;;15.03;97.35;96378.59;5073836;28;20763;-62
2021/08/29 03:09:33;;;;;;;5.40;4.50;;;;;;;15.07;96.75;96375.16;5073621;28;20564;-63
2021/08/29 03:12:00;;;;;;;7.00;5.07;;;;;;;14.80;98.07;96377.06;5073693;28;20748;-62
2021/08/29 03:14:25;;;;;;;5.53;5.03;;;;;;;14.95;97.57;96368.44;5073242;28;21007;-62
2021/08/29 03:16:52;;;;;;;5.87;5.33;;;;;;;15.01;97.10;96367.44;5073871;28;20496;-60
2021/08/29 03:19:17;;;;;;;5.30;4.90;;;;;;;15.03;97.32;96360.88;5056860;28;20278;-63
2021/08/29 03:21:43;;;;;;;5.73;5.13;;;;;;;15.01;97.69;96362.16;5053346;28;20460;-60
2021/08/29 03:24:09;;;;;;;5.53;5.13;;;;;;;14.90;97.36;96363.94;5052846;28;20241;-60
2021/08/29 03:26:34;;;;;;;4.87;4.47;;;;;;;14.36;100.00;96360.53;5053661;28;20175;-63
2021/08/29 03:29:00;;;;;;;5.53;5.03;;;;;;;14.60;99.88;96360.22;5053421;28;20410;-61
2021/08/29 03:31:27;;;;;;;5.80;4.80;;;;;;;14.66;99.76;96356.56;5053244;28;20529;-60
2021/08/29 03:33:55;;;;;;;6.30;4.60;;;;;;;14.72;99.30;96360.84;5067573;28;20190;-62
2021/08/29 03:36:22;;;;;;;5.63;5.00;;;;;;;14.89;99.35;96364.19;5073176;28;20442;-63
2021/08/29 03:38:50;;;;;;;5.57;4.87;;;;;;;14.87;99.14;96358.34;5073342;28;20416;-63
2021/08/29 03:41:17;;;;;;;5.27;4.80;;;;;;;14.96;98.30;96356.84;5073280;28;20416;-60
2021/08/29 03:43:43;;;;;;;4.83;4.33;;;;;;;14.67;99.13;96358.97;5072965;28;20412;-64
2021/08/29 03:46:09;;;;;;;5.03;4.63;;;;;;;14.55;100.00;96360.97;5073113;28;20494;-60
2021/08/29 03:48:35;;;;;;;5.30;4.20;;;;;;;14.64;100.00;96363.97;5058236;28;20765;-60
2021/08/29 03:51:01;;;;;;;4.63;4.20;;;;;;;14.72;99.72;96361.66;5066813;28;20177;-61
2021/08/29 03:53:28;;;;;;;5.63;5.13;;;;;;;14.95;98.94;96356.03;5076043;28;20867;-61
2021/08/29 03:55:54;;;;;;;5.00;4.50;;;;;;;14.98;98.01;96352.88;5077089;28;20186;-61
2021/08/29 03:58:19;;;;;;;4.87;4.47;;;;;;;14.57;100.00;96350.94;5077189;28;20462;-60
2021/08/29 04:00:45;;;;;;;4.80;4.40;;;;;;;14.81;99.53;96346.94;5077219;28;20179;-61
2021/08/29 04:03:10;;;;;;;5.17;4.77;;;;;;;14.92;98.54;96345.16;5075921;28;20620;-60
2021/08/29 04:05:39;;;;;;;5.83;5.33;;;;;;;14.61;99.19;96349.41;5077083;28;20206;-60
2021/08/29 04:08:08;;;;;;;5.43;4.80;;;;;;;14.25;100.00;96344.78;5076944;28;20243;-62
2021/08/29 04:10:36;;;;;;;6.07;5.47;;;;;;;13.94;100.00;96338.38;5077032;28;20419;-60
2021/08/29 04:13:02;;;;;;;5.57;4.97;;;;;;;13.86;100.00;96349.34;5075265;28;20413;-62
2021/08/29 04:15:27;;;;;;;6.27;5.67;;;;;;;13.54;100.00;96350.25;5076650;28;20429;-62
2021/08/29 04:17:53;;;;;;;6.00;5.40;;;;;;;13.19;100.00;96351.38;5063508;28;20646;-60
2021/08/29 04:20:19;;;;;;;5.63;5.13;;;;;;;13.34;100.00;96353.41;5056699;28;20179;-60
2021/08/29 04:22:44;;;;;;;5.90;5.40;;;;;;;13.56;100.00;96348.19;5056193;28;20449;-62
2021/08/29 04:25:11;;;;;;;6.70;6.10;;;;;;;13.47;100.00;96353.09;5059569;28;20202;-62
2021/08/29 04:27:36;;;;;;;6.50;5.90;;;;;;;13.60;100.00;96352.75;5076729;28;20175;-62
2021/08/29 04:30:03;;;;;;;8.00;7.20;;;;;;;13.66;100.00;96346.47;5076382;28;20778;-62
2021/08/29 04:32:30;;;;;;;7.10;6.40;;;;;;;13.61;100.00;96337.66;5076426;28;20232;-62
2021/08/29 04:34:56;;;;;;;6.43;5.70;;;;;;;13.57;100.00;96337.38;5075960;28;20417;-62
2021/08/29 04:37:21;;;;;;;6.63;6.03;;;;;;;13.58;100.00;96343.44;5076520;28;20409;-62
2021/08/29 04:39:46;;;;;;;7.13;6.53;;;;;;;13.78;100.00;96328.66;5060681;28;20249;-60
2021/08/29 04:42:12;;;;;;;7.50;6.23;;;;;;;14.14;100.00;96333.31;5056277;28;20201;-60
2021/08/29 04:44:37;;;;;;;8.00;6.47;;;;;;;14.08;100.00;96333.47;5055775;28;20617;-61
2021/08/29 04:47:03;;;;;;;6.53;5.90;;;;;;;13.81;100.00;96336.09;5062644;28;20174;-62
2021/08/29 04:49:28;;;;;;;7.20;6.50;;;;;;;14.03;100.00;96336.06;5076165;28;20698;-60
2021/08/29 04:51:54;;;;;;;5.77;5.27;;;;;;;14.28;100.00;96323.97;5076096;28;20170;-60
2021/08/29 04:54:19;;;;;;;6.70;6.10;;;;;;;14.42;100.00;96333.09;5075835;28;20257;-62
2021/08/29 04:56:44;;;;;;;6.90;6.30;;;;;;;14.73;100.00;96328.84;5076281;28;20171;-60
2021/08/29 04:59:10;;;;;;;5.57;5.07;;;;;;;14.83;100.00;96328.16;5076043;28;20528;-62
2021/08/29 05:01:35;;;;;;;6.90;6.00;;;;;;;14.84;100.00;96324.47;5074996;28;20217;-60
2021/08/29 05:04:00;;;;;;;6.20;5.67;;;;;;;14.74;100.00;96324.38;5054688;28;20681;-60
2021/08/29 05:06:27;;;;;;;7.10;6.30;;;;;;;14.81;100.00;96323.13;5056138;28;20172;-60
2021/08/29 05:08:53;;;;;;;6.60;5.67;;;;;;;14.94;100.00;96322.69;5055877;28;20167;-62
2021/08/29 05:11:20;;;;;;;7.00;5.90;;;;;;;14.73;100.00;96326.22;5055710;28;20876;-62
2021/08/29 05:13:45;;;;;;;5.80;4.80;;;;;;;14.72;100.00;96332.56;5055321;28;20597;-62
2021/08/29 05:16:10;;;;;;;4.73;4.33;;;;;;;14.81;100.00;96328.41;5055531;28;20454;-62
2021/08/29 05:18:36;;;;;;;4.33;3.97;;;;;;;14.68;100.00;96333.31;5073429;28;20170;-62
2021/08/29 05:21:01;;;;;;;3.93;3.63;;;;;;;14.92;100.00;96331.94;5075616;28;20225;-62
2021/08/29 05:23:26;;;;;;;4.77;4.30;;;;;;;14.94;100.00;96329.81;5075194;28;20548;-62
2021/08/29 05:25:52;;;;;;;4.33;3.97;;;;;;;14.78;100.00;96333.41;5075380;28;20210;-62
2021/08/29 05:28:17;;;;;;;4.00;3.70;;;;;;;14.80;100.00;96342.66;5075320;28;20171;-60
2021/08/29 05:30:43;;;;;;;3.83;3.53;;;;;;;14.87;100.00;96339.84;5075343;28;20178;-62
2021/08/29 05:33:08;;;;;;;3.50;3.20;;;;;;;14.82;100.00;96345.09;5071610;28;20182;-59
2021/08/29 05:35:33;;;;;;;3.80;3.50;;;;;;;14.49;100.00;96340.84;5075506;28;20308;-60
2021/08/29 05:37:59;;;;;;;3.87;3.50;;;;;;;14.34;100.00;96320.34;5075505;28;20175;-62
2021/08/29 05:40:24;;;;;;;3.17;2.87;;;;;;;14.05;100.00;96324.22;5075364;28;20174;-60
2021/08/29 05:42:49;;;;;;;2.93;2.73;;;;;;;13.77;100.00;96321.00;5074737;28;20662;-60
2021/08/29 05:45:15;;;;;;;3.30;3.00;;;;;;;13.33;100.00;96331.50;5074999;28;20182;-62
2021/08/29 05:47:40;;;;;;;2.53;2.43;;;;;;;13.61;100.00;96327.13;5060259;28;20185;-62
2021/08/29 05:50:06;;;;;;;3.23;3.03;;;;;;;13.58;100.00;96328.41;5060861;28;20300;-62
2021/08/29 05:52:31;;;;;;;4.00;3.60;;;;;;;13.57;100.00;96333.94;5074989;28;20163;-62
2021/08/29 05:54:56;;;;;;;4.17;3.77;;;;;;;13.79;100.00;96322.34;5074551;28;20260;-62
2021/08/29 05:57:22;;;;;;;4.73;4.33;;;;;;;14.04;100.00;96324.47;5074858;28;20611;-62
2021/08/29 05:59:47;;;;;;;3.70;3.40;;;;;;;13.67;100.00;96329.59;5074905;28;20171;-62
2021/08/29 06:02:13;;;;;;;3.90;3.60;;;;;;;13.43;100.00;96328.22;5073994;28;20249;-60
2021/08/29 06:04:41;;;;;;;3.60;2.90;;;;;;;13.26;100.00;96330.09;5074502;28;20183;-60
2021/08/29 06:07:07;;;;;;;3.13;2.83;;;;;;;13.06;100.00;96327.16;5074819;28;20174;-62
2021/08/29 06:09:32;;;;;;;2.50;2.37;;;;;;;13.32;100.00;96321.19;5070717;28;20417;-62
2021/08/29 06:11:58;;;;;;;2.80;2.60;;;;;;;13.58;100.00;96317.84;5054633;28;20160;-62
2021/08/29 06:14:23;;;;;;;2.97;2.67;;;;;;;13.40;100.00;96321.59;5054233;28;20195;-60
2021/08/29 06:16:48;;;;;;;2.50;2.40;;;;;;;13.45;100.00;96318.22;5054477;28;20634;-59
2021/08/29 06:19:14;;;;;;;2.47;2.27;;;;;;;13.42;100.00;96324.00;5068546;28;20580;-62
2021/08/29 06:21:39;;;;;;;2.77;2.57;;;;;;;13.33;100.00;96320.16;5074485;28;20623;-62
2021/08/29 06:24:05;;;;;;;1.97;1.87;;;;;;;13.66;100.00;96314.78;5073888;28;20167;-60
2021/08/29 06:26:30;;;;;;;1.80;1.70;;;;;;;13.78;100.00;96318.09;5074575;28;20162;-61
2021/08/29 06:28:55;;;;;;;1.97;1.87;;;;;;;14.04;100.00;96321.84;5074319;28;20174;-60
2021/08/29 06:31:21;;;;;;;1.70;1.60;;;;;;;14.15;100.00;96316.38;5074484;28;20177;-59
2021/08/29 06:33:46;;;;;;;1.80;1.70;;;;;;;14.43;100.00;96321.47;5072508;28;20232;-59
2021/08/29 06:36:11;;;;;;;1.10;1.10;;;;;;;14.47;100.00;96320.97;5058294;28;20202;-59
2021/08/29 06:38:37;;;;;;;1.63;1.53;;;;;;;14.34;100.00;96320.34;5054149;28;20177;-62
2021/08/29 06:41:02;;;;;;;2.07;1.97;;;;;;;14.42;100.00;96319.09;5054314;28;20198;-63
2021/08/29 06:43:27;;;;;;;1.40;1.37;;;;;;;14.46;100.00;96322.81;5053557;28;20293;-62
2021/08/29 06:45:53;;;;;;;1.90;1.80;;;;;;;14.38;100.00;96313.47;5053966;28;20195;-62
2021/08/29 06:48:18;;;;;;;1.90;1.80;;;;;;;14.62;100.00;96311.31;5054025;28;20372;-60
2021/08/29 06:50:44;;;;;;;2.10;2.00;;;;;;;14.83;100.00;96309.63;5066996;28;20179;-60
2021/08/29 06:53:09;;;;;;;1.90;1.80;;;;;;;14.76;100.00;96304.56;5073513;28;20163;-59
2021/08/29 06:55:34;;;;;;;2.00;1.90;;;;;;;14.94;100.00;96306.81;5073815;28;20190;-59
2021/08/29 06:58:00;;;;;;;1.70;1.60;;;;;;;14.76;100.00;96309.06;5073738;28;20170;-60
2021/08/29 07:00:25;;;;;;;1.70;1.60;;;;;;;14.75;100.00;96305.59;5074249;28;20179;-62
2021/08/29 07:02:50;;;;;;;1.20;1.20;;;;;;;14.97;100.00;96308.16;5073474;28;20198;-59
2021/08/29 07:05:16;;;;;;;2.60;1.97;;;;;;;15.01;100.00;96311.88;5064682;28;20564;-62
2021/08/29 07:07:41;;;;;;;1.53;1.30;;;;;;;15.08;100.00;96307.97;5053891;28;20168;-63
2021/08/29 07:10:07;;;;;;;1.60;1.50;;;;;;;14.94;100.00;96313.94;5052405;28;20220;-59
2021/08/29 07:12:32;;;;;;;1.20;1.20;;;;;;;14.97;100.00;96306.31;5053473;28;20182;-60
2021/08/29 07:14:57;;;;;;;1.43;1.33;;;;;;;14.87;100.00;96300.16;5053133;28;20199;-62
2021/08/29 07:17:23;;;;;;;1.43;1.33;;;;;;;14.86;100.00;96303.81;5053508;28;20261;-62
2021/08/29 07:19:48;;;;;;;1.20;1.20;;;;;;;15.07;100.00;96300.28;5063256;28;20170;-61
2021/08/29 07:22:14;;;;;;;1.20;1.10;;;;;;;14.97;100.00;96300.22;5073801;28;20203;-59
2021/08/29 07:24:39;;;;;;;1.23;1.23;;;;;;;15.24;100.00;96306.19;5071620;28;20285;-62
2021/08/29 07:27:05;;;;;;;1.47;1.47;;;;;;;15.00;100.00;96303.13;5073095;28;20171;-60
2021/08/29 07:29:31;;;;;;;0.87;0.87;;;;;;;15.26;100.00;96301.44;5073393;28;20238;-63
2021/08/29 07:31:57;;;;;;;1.00;1.00;;;;;;;15.22;100.00;96297.72;5073426;28;20519;-63
2021/08/29 07:34:23;;;;;;;1.20;1.20;;;;;;;15.37;100.00;96293.31;5064059;28;20557;-60
2021/08/29 07:36:48;;;;;;;2.83;1.00;;;;;;;15.56;100.00;96296.38;5053354;28;20425;-60
2021/08/29 07:39:13;;;;;;;1.10;1.10;;;;;;;15.45;99.52;96294.72;5053176;28;20203;-61
2021/08/29 07:41:39;;;;;;;0.90;0.90;;;;;;;15.49;99.99;96295.00;5055240;28;20167;-63
2021/08/29 07:44:04;;;;;;;1.20;1.10;;;;;;;15.57;99.64;96297.94;5073007;28;20258;-62
2021/08/29 07:46:30;;;;;;;1.00;0.90;;;;;;;15.42;100.00;96301.31;5073262;28;20206;-63
2021/08/29 07:48:57;;;;;;;0.87;0.87;;;;;;;15.56;100.00;96300.84;5072561;28;20178;-64
2021/08/29 07:51:23;;;;;;;0.70;0.70;;;;;;;15.63;99.78;96293.47;5071842;28;20854;-63
2021/08/29 07:53:48;;;;;;;0.67;0.67;;;;;;;15.91;99.42;96301.78;5072887;28;20491;-64
2021/08/29 07:56:14;;;;;;;0.90;0.90;;;;;;;15.82;99.08;96297.25;5073122;28;20190;-64
2021/08/29 07:58:39;;;;;;;0.90;0.90;;;;;;;16.02;98.78;96298.13;5072668;28;20198;-63
2021/08/29 08:01:04;;;;;;;1.27;1.00;;;;;;;16.17;98.64;96308.75;5073256;28;20656;-63
2021/08/29 08:03:30;;;;;;;0.70;0.70;;;;;;;16.29;97.54;96304.00;5067049;28;20731;-63
2021/08/29 08:05:55;;;;;;;1.00;1.00;;;;;;;16.44;96.79;96312.00;5052856;28;20282;-63
2021/08/29 08:08:21;;;;;;;0.93;0.93;;;;;;;16.58;96.34;96308.88;5053117;28;20688;-64
2021/08/29 08:10:46;;;;;;;0.80;0.80;;;;;;;16.71;95.92;96309.13;5052848;28;20175;-64
2021/08/29 08:13:12;;;;;;;0.87;0.87;;;;;;;16.66;96.10;96310.97;5052533;28;20167;-64
2021/08/29 08:15:37;;;;;;;0.70;0.70;;;;;;;16.60;96.54;96309.38;5052849;28;20217;-64
2021/08/29 08:18:03;;;;;;;0.93;0.93;;;;;;;16.62;96.54;96313.38;5056514;28;20175;-63
2021/08/29 08:20:29;;;;;;;0.63;0.63;;;;;;;16.59;96.30;96308.59;5073231;28;20171;-63
2021/08/29 08:22:54;;;;;;;0.83;0.83;;;;;;;16.59;96.51;96310.44;5072477;28;20906;-64
2021/08/29 08:25:19;;;;;;;0.87;0.87;;;;;;;16.61;96.32;96305.66;5072694;28;20199;-64
2021/08/29 08:27:45;;;;;;;0.73;0.73;;;;;;;16.56;96.26;96316.28;5072756;28;20162;-64
2021/08/29 08:30:11;;;;;;;0.70;0.70;;;;;;;16.38;97.81;96304.28;5072907;28;20213;-63
2021/08/29 08:32:37;;;;;;;1.30;1.30;;;;;;;16.25;98.71;96307.47;5070025;28;20170;-63
2021/08/29 08:35:03;;;;;;;2.00;1.90;;;;;;;16.25;100.00;96302.94;5071734;28;20452;-63
2021/08/29 08:37:28;;;;;;;1.97;1.87;;;;;;;16.25;100.00;96307.47;5072853;28;20171;-64
2021/08/29 08:39:54;;;;;;;2.20;2.10;;;;;;;16.20;100.00;96310.06;5074959;28;20648;-64
2021/08/29 08:42:19;;;;;;;1.87;1.70;;;;;;;16.29;100.00;96300.56;5076320;28;20561;-63
2021/08/29 08:44:47;;;;;;;1.90;1.80;;;;;;;16.50;100.00;96304.88;5075782;28;20191;-63
2021/08/29 08:47:16;;;;;;;2.00;1.90;;;;;;;16.63;100.00;96306.22;5075157;28;20254;-63
2021/08/29 08:49:43;;;;;;;2.30;2.20;;;;;;;16.55;100.00;96304.88;5056074;28;20417;-63
2021/08/29 08:52:15;;;;;;;2.00;1.90;;;;;;;16.58;100.00;96304.34;5055926;28;20413;-64
2021/08/29 08:54:43;;;;;;;3.63;2.60;;;;;;;16.83;100.00;96300.91;5055651;28;20434;-63
2021/08/29 08:57:08;;;;;;;2.57;2.37;;;;;;;16.96;100.00;96298.50;5055643;28;20500;-64
2021/08/29 08:59:35;;;;;;;3.00;2.80;;;;;;;16.80;100.00;96299.56;5054961;28;20406;-64
2021/08/29 09:02:00;;;;;;;3.00;2.80;;;;;;;16.40;100.00;96294.22;5056668;28;20227;-64
2021/08/29 09:04:26;;;;;;;3.60;3.10;;;;;;;16.73;100.00;96301.69;5075378;28;20460;-64
2021/08/29 09:06:51;;;;;;;3.50;3.03;;;;;;;16.67;100.00;96301.97;5075877;28;20277;-64
2021/08/29 09:09:17;;;;;;;3.27;3.00;;;;;;;16.67;100.00;96299.31;5075813;28;20174;-64
2021/08/29 09:11:42;;;;;;;3.40;3.20;;;;;;;16.76;100.00;96303.81;5075789;28;20228;-63
2021/08/29 09:14:08;;;;;;;3.03;2.83;;;;;;;16.17;100.00;96298.16;5075544;28;20170;-64
2021/08/29 09:16:33;;;;;;;2.90;2.70;;;;;;;16.25;100.00;96302.16;5075838;28;20236;-62
2021/08/29 09:19:01;;;;;;;3.00;2.80;;;;;;;16.63;100.00;96308.84;5056362;28;20176;-63
2021/08/29 09:21:32;;;;;;;3.70;3.40;;;;;;;16.79;100.00;96303.28;5075594;28;20208;-64
2021/08/29 09:23:59;;;;;;;3.00;2.80;;;;;;;16.84;100.00;96308.59;5072954;28;20429;-63
2021/08/29 09:26:27;;;;;;;3.27;3.07;;;;;;;16.89;100.00;96299.81;5064458;28;20491;-64
2021/08/29 09:28:57;;;;;;;5.53;3.50;;;;;;;16.79;100.00;96307.81;5075793;28;20896;-63
2021/08/29 09:31:23;;;;;;;4.17;3.27;;;;;;;16.59;100.00;96307.78;5056215;28;20418;-61
2021/08/29 09:33:59;;;;;;;3.73;3.43;;;;;;;16.48;100.00;96303.53;5051955;28;20455;-64
2021/08/29 09:36:35;;;;;;;3.70;3.40;;;;;;;16.73;100.00;96303.53;5065629;28;20862;-59
2021/08/29 09:39:12;;;;;;;3.47;3.27;;;;;;;16.77;100.00;96309.91;5071811;28;20445;-62
2021/08/29 09:41:38;;;;;;;3.80;3.50;;;;;;;16.55;100.00;96312.03;5071650;28;20400;-65
2021/08/29 09:44:17;;;;;;;3.53;3.33;;;;;;;16.42;100.00;96305.34;5070823;28;20772;-60
2021/08/29 09:46:53;;;;;;;3.57;3.37;;;;;;;16.36;100.00;96309.84;5071607;28;20236;-65
2021/08/29 09:49:23;;;;;;;4.30;4.00;;;;;;;16.45;100.00;96302.97;5071524;28;20462;-61
2021/08/29 09:51:49;;;;;;;4.20;3.90;;;;;;;16.74;100.00;96308.59;5052326;28;20477;-61
2021/08/29 09:54:44;;;;;;;4.40;4.10;;;;;;;16.87;100.00;96315.22;5051235;28;20567;-63
2021/08/29 09:57:11;;;;;;;4.43;4.03;;;;;;;16.66;100.00;96309.13;5050088;28;20240;-62
2021/08/29 09:59:41;;;;;;;4.70;4.20;;;;;;;16.19;100.00;96311.94;5051474;28;20410;-61
2021/08/29 10:02:08;;;;;;;4.60;4.30;;;;;;;16.09;100.00;96306.59;5051505;28;20544;-64
2021/08/29 10:04:34;;;;;;;4.40;4.10;;;;;;;16.42;100.00;96302.69;5050807;28;20969;-66
2021/08/29 10:07:17;;;;;;;5.40;5.00;;;;;;;16.45;100.00;96302.16;5050767;28;20422;-66
2021/08/29 10:09:46;;;;;;;4.70;4.30;;;;;;;16.22;100.00;96298.16;5051007;28;20172;-66
2021/08/29 10:12:13;;;;;;;5.30;4.80;;;;;;;16.13;100.00;96302.38;5051087;28;20410;-66
2021/08/29 10:14:40;;;;;;;4.87;4.50;;;;;;;16.22;100.00;96300.00;5050619;28;20440;-66
2021/08/29 10:17:05;;;;;;;4.37;4.13;;;;;;;16.63;100.00;96303.56;5050994;28;20422;-66
2021/08/29 10:19:32;;;;;;;5.00;4.70;;;;;;;16.49;100.00;96299.84;5061583;28;20424;-67
2021/08/29 10:22:00;;;;;;;5.27;4.87;;;;;;;16.20;100.00;96310.06;5062248;28;20246;-66
2021/08/29 10:24:31;;;;;;;8.67;6.20;;;;;;;16.46;100.00;96301.13;5050303;28;20442;-67
2021/08/29 10:27:02;;;;;;;5.50;5.00;;;;;;;16.80;100.00;96304.88;5050839;28;20598;-67
2021/08/29 10:29:34;;;;;;;5.30;4.90;;;;;;;16.94;100.00;96311.22;5050708;28;20429;-66
2021/08/29 10:32:20;;;;;;;5.83;5.43;;;;;;;16.83;100.00;96306.22;5050098;28;20445;-65
2021/08/29 10:34:45;;;;;;;5.47;5.07;;;;;;;16.39;100.00;96309.34;5050474;28;20434;-67
2021/08/29 10:37:11;;;;;;;5.10;4.67;;;;;;;16.38;100.00;96306.94;5062244;28;20436;-66
2021/08/29 10:39:37;;;;;;;6.63;5.57;;;;;;;16.21;100.00;96296.59;5069453;28;20218;-66
2021/08/29 10:42:03;;;;;;;5.77;5.27;;;;;;;16.30;100.00;96300.31;5070537;28;20293;-64
2021/08/29 10:44:29;;;;;;;4.90;4.50;;;;;;;16.70;100.00;96306.75;5069593;28;20525;-64
2021/08/29 10:46:56;;;;;;;4.60;4.30;;;;;;;16.97;100.00;96304.59;5070396;28;20412;-62
2021/08/29 10:49:22;;;;;;;4.37;4.00;;;;;;;17.01;100.00;96305.69;5070220;28;20257;-62
2021/08/29 10:51:51;;;;;;;4.00;3.80;;;;;;;16.92;100.00;96309.94;5069896;28;20452;-62
2021/08/29 10:54:16;;;;;;;4.73;4.43;;;;;;;17.20;100.00;96309.34;5056290;28;21170;-64
2021/08/29 10:56:42;;;;;;;4.43;4.13;;;;;;;17.23;100.00;96306.16;5048722;28;20426;-63
2021/08/29 10:59:07;;;;;;;4.40;4.10;;;;;;;17.54;100.00;96306.94;5050338;28;20254;-64
2021/08/29 11:01:40;;;;;;;4.20;3.90;;;;;;;17.51;100.00;96312.78;5049402;28;20638;-63
2021/08/29 11:04:21;;;;;;;3.90;3.70;;;;;;;17.46;100.00;96314.34;5049671;28;20240;-64
2021/08/29 11:06:54;;;;;;;4.30;4.00;;;;;;;17.04;100.00;96308.59;5049445;28;21240;-63
2021/08/29 11:09:32;;;;;;;4.03;3.73;;;;;;;17.13;100.00;96303.53;5065374;28;20482;-64
2021/08/29 11:12:19;;;;;;;3.40;3.20;;;;;;;17.16;100.00;96302.97;5069876;28;20782;-62
2021/08/29 11:14:52;;;;;;;3.83;3.60;;;;;;;17.38;100.00;96304.28;5052140;28;20495;-64
2021/08/29 11:17:28;;;;;;;4.10;3.70;;;;;;;17.60;100.00;96297.84;5049960;28;20916;-63
2021/08/29 11:20:02;;;;;;;3.63;3.30;;;;;;;17.68;100.00;96305.28;5064261;28;20405;-64
2021/08/29 11:22:48;;;;;;;3.27;3.07;;;;;;;17.29;100.00;96305.09;5069073;28;20495;-64
2021/08/29 11:25:15;;;;;;;3.90;3.60;;;;;;;17.21;100.00;96305.66;5069635;28;20465;-64
2021/08/29 11:28:01;;;;;;;3.90;3.60;;;;;;;17.19;100.00;96300.59;5069737;28;20848;-64
2021/08/29 11:30:35;;;;;;;3.67;3.47;;;;;;;17.35;100.00;96302.16;5069122;28;20852;-63